createdAt,value
2023-02-28T00:00:04.482Z,1025.65
2023-02-28T00:01:04.444Z,1025.66
2023-02-28T00:02:04.480Z,1025.67
2023-02-28T00:03:04.490Z,1025.69
2023-02-28T00:04:04.396Z,1025.70
2023-02-28T00:05:04.397Z,1025.75
2023-02-28T00:06:04.386Z,1025.67
2023-02-28T00:07:04.361Z,1025.67
2023-02-28T00:08:04.376Z,1025.69
2023-02-28T00:09:04.345Z,1025.67
2023-02-28T00:10:04.329Z,1025.67
2023-02-28T00:11:04.340Z,1025.70
2023-02-28T00:12:04.333Z,1025.68
2023-02-28T00:13:04.298Z,1025.70
2023-02-28T00:14:04.288Z,1025.67
2023-02-28T00:15:04.278Z,1025.74
2023-02-28T00:16:04.270Z,1025.67
2023-02-28T00:17:04.258Z,1025.70
2023-02-28T00:18:04.269Z,1025.71
2023-02-28T00:19:04.239Z,1025.69
2023-02-28T00:20:04.238Z,1025.70
2023-02-28T00:21:04.212Z,1025.72
2023-02-28T00:22:04.207Z,1025.69
2023-02-28T00:23:04.205Z,1025.68
2023-02-28T00:24:04.219Z,1025.67
2023-02-28T00:25:04.170Z,1025.67
2023-02-28T00:26:04.171Z,1025.69
2023-02-28T00:27:04.180Z,1025.65
2023-02-28T00:28:04.173Z,1025.64
2023-02-28T00:29:04.140Z,1025.66
2023-02-28T00:30:04.140Z,1025.67
2023-02-28T00:31:04.156Z,1025.66
2023-02-28T00:32:04.137Z,1025.66
2023-02-28T00:33:04.112Z,1025.66
2023-02-28T00:34:04.075Z,1025.70
2023-02-28T00:35:04.070Z,1025.73
2023-02-28T00:36:04.100Z,1025.69
2023-02-28T00:37:04.070Z,1025.71
2023-02-28T00:38:04.025Z,1025.74
2023-02-28T00:39:04.032Z,1025.71
2023-02-28T00:40:04.021Z,1025.70
2023-02-28T00:41:03.999Z,1025.73
2023-02-28T00:42:03.987Z,1025.73
2023-02-28T00:43:04.019Z,1025.69
2023-02-28T00:44:03.998Z,1025.72
2023-02-28T00:45:03.962Z,1025.73
2023-02-28T00:46:04.036Z,1025.73
2023-02-28T00:47:03.956Z,1025.74
2023-02-28T00:48:03.925Z,1025.75
2023-02-28T00:49:03.924Z,1025.71
2023-02-28T00:50:03.920Z,1025.77
2023-02-28T00:51:03.900Z,1025.74
2023-02-28T00:52:03.899Z,1025.74
2023-02-28T00:53:03.878Z,1025.74
2023-02-28T00:54:03.875Z,1025.76
2023-02-28T00:55:03.855Z,1025.69
2023-02-28T00:56:03.856Z,1025.73
2023-02-28T00:57:03.846Z,1025.72
2023-02-28T00:58:03.836Z,1025.74
2023-02-28T00:59:03.824Z,1025.78
2023-02-28T01:00:03.800Z,1025.76
2023-02-28T01:01:03.844Z,1025.75
2023-02-28T01:02:03.770Z,1025.74
2023-02-28T01:03:03.788Z,1025.81
2023-02-28T01:04:03.794Z,1025.76
2023-02-28T01:05:03.749Z,1025.74
2023-02-28T01:06:03.730Z,1025.78
2023-02-28T01:07:03.729Z,1025.72
2023-02-28T01:08:03.710Z,1025.74
2023-02-28T01:09:03.704Z,1025.79
2023-02-28T01:10:03.728Z,1025.78
2023-02-28T01:11:03.687Z,1025.80
2023-02-28T01:12:03.672Z,1025.80
2023-02-28T01:13:03.676Z,1025.77
2023-02-28T01:14:03.665Z,1025.83
2023-02-28T01:15:03.658Z,1025.76
2023-02-28T01:16:03.660Z,1025.82
2023-02-28T01:17:03.622Z,1025.74
2023-02-28T01:18:03.603Z,1025.75
2023-02-28T01:19:03.612Z,1025.78
2023-02-28T01:20:03.604Z,1025.76
2023-02-28T01:21:03.581Z,1025.74
2023-02-28T01:22:03.597Z,1025.74
2023-02-28T01:23:03.548Z,1025.72
2023-02-28T01:24:03.533Z,1025.68
2023-02-28T01:25:03.557Z,1025.69
2023-02-28T01:26:03.532Z,1025.68
2023-02-28T01:27:03.509Z,1025.69
2023-02-28T01:28:03.514Z,1025.69
2023-02-28T01:29:03.506Z,1025.67
2023-02-28T01:30:03.483Z,1025.62
2023-02-28T01:31:03.526Z,1025.67
2023-02-28T01:32:03.504Z,1025.58
2023-02-28T01:33:03.447Z,1025.62
2023-02-28T01:34:03.430Z,1025.56
2023-02-28T01:35:03.440Z,1025.64
2023-02-28T01:36:03.485Z,1025.54
2023-02-28T01:37:03.427Z,1025.60
2023-02-28T01:38:20.507Z,1025.58
2023-02-28T01:39:04.411Z,1025.62
2023-02-28T01:40:03.366Z,1025.60
2023-02-28T01:41:03.360Z,1025.64
2023-02-28T01:42:03.352Z,1025.61
2023-02-28T01:43:03.334Z,1025.63
2023-02-28T01:44:03.362Z,1025.64
2023-02-28T01:45:03.320Z,1025.64
2023-02-28T01:46:03.358Z,1025.61
2023-02-28T01:47:03.318Z,1025.58
2023-02-28T01:48:03.296Z,1025.60
2023-02-28T01:49:03.274Z,1025.59
2023-02-28T01:50:03.270Z,1025.58
2023-02-28T01:51:03.252Z,1025.62
2023-02-28T01:52:03.245Z,1025.60
2023-02-28T01:53:03.252Z,1025.63
2023-02-28T01:54:03.219Z,1025.59
2023-02-28T01:55:03.214Z,1025.60
2023-02-28T01:56:03.202Z,1025.63
2023-02-28T01:57:03.185Z,1025.63
2023-02-28T01:58:03.171Z,1025.61
2023-02-28T01:59:03.190Z,1025.60
2023-02-28T02:00:03.165Z,1025.63
2023-02-28T02:01:03.139Z,1025.60
2023-02-28T02:02:03.199Z,1025.63
2023-02-28T02:03:03.193Z,1025.62
2023-02-28T02:04:03.112Z,1025.60
2023-02-28T02:05:03.115Z,1025.60
2023-02-28T02:06:03.090Z,1025.64
2023-02-28T02:07:03.103Z,1025.64
2023-02-28T02:08:03.077Z,1025.65
2023-02-28T02:09:03.056Z,1025.65
2023-02-28T02:10:03.052Z,1025.68
2023-02-28T02:11:03.060Z,1025.67
2023-02-28T02:12:03.035Z,1025.68
2023-02-28T02:13:03.020Z,1025.59
2023-02-28T02:14:03.008Z,1025.59
2023-02-28T02:15:03.030Z,1025.59
2023-02-28T02:16:03.024Z,1025.60
2023-02-28T02:17:02.978Z,1025.60
2023-02-28T02:18:02.957Z,1025.56
2023-02-28T02:19:02.972Z,1025.58
2023-02-28T02:20:02.951Z,1025.58
2023-02-28T02:21:02.949Z,1025.55
2023-02-28T02:22:02.926Z,1025.58
2023-02-28T02:23:02.900Z,1025.53
2023-02-28T02:24:02.895Z,1025.54
2023-02-28T02:25:02.900Z,1025.56
2023-02-28T02:26:02.874Z,1025.55
2023-02-28T02:27:02.887Z,1025.52
2023-02-28T02:28:02.849Z,1025.51
2023-02-28T02:29:02.837Z,1025.50
2023-02-28T02:30:02.832Z,1025.50
2023-02-28T02:31:02.842Z,1025.49
2023-02-28T02:32:02.846Z,1025.51
2023-02-28T02:33:02.806Z,1025.47
2023-02-28T02:34:02.794Z,1025.52
2023-02-28T02:35:02.805Z,1025.54
2023-02-28T02:36:02.914Z,1025.53
2023-02-28T02:37:02.772Z,1025.57
2023-02-28T02:38:02.759Z,1025.57
2023-02-28T02:39:02.743Z,1025.61
2023-02-28T02:40:02.727Z,1025.63
2023-02-28T02:41:02.729Z,1025.57
2023-02-28T02:42:02.752Z,1025.57
2023-02-28T02:43:02.708Z,1025.62
2023-02-28T02:44:02.701Z,1025.60
2023-02-28T02:45:02.689Z,1025.60
2023-02-28T02:46:02.673Z,1025.60
2023-02-28T02:47:02.687Z,1025.63
2023-02-28T02:48:02.681Z,1025.58
2023-02-28T02:49:02.639Z,1025.57
2023-02-28T02:50:02.634Z,1025.53
2023-02-28T02:51:02.618Z,1025.55
2023-02-28T02:52:02.606Z,1025.56
2023-02-28T02:53:02.626Z,1025.55
2023-02-28T02:54:02.579Z,1025.53
2023-02-28T02:55:02.582Z,1025.57
2023-02-28T02:56:02.554Z,1025.54
2023-02-28T02:57:02.546Z,1025.54
2023-02-28T02:58:02.539Z,1025.51
2023-02-28T02:59:02.520Z,1025.55
2023-02-28T03:00:02.532Z,1025.56
2023-02-28T03:01:02.538Z,1025.57
2023-02-28T03:02:02.496Z,1025.57
2023-02-28T03:03:02.491Z,1025.61
2023-02-28T03:04:02.495Z,1025.56
2023-02-28T03:05:02.469Z,1025.59
2023-02-28T03:06:02.486Z,1025.59
2023-02-28T03:07:02.455Z,1025.63
2023-02-28T03:08:02.428Z,1025.59
2023-02-28T03:09:02.418Z,1025.58
2023-02-28T03:10:02.399Z,1025.60
2023-02-28T03:11:02.443Z,1025.58
2023-02-28T03:12:02.400Z,1025.59
2023-02-28T03:13:02.365Z,1025.63
2023-02-28T03:14:02.364Z,1025.63
2023-02-28T03:15:02.355Z,1025.64
2023-02-28T03:16:02.368Z,1025.67
2023-02-28T03:17:02.339Z,1025.67
2023-02-28T03:18:02.330Z,1025.66
2023-02-28T03:19:02.316Z,1025.69
2023-02-28T03:20:02.302Z,1025.67
2023-02-28T03:21:02.282Z,1025.68
2023-02-28T03:22:02.299Z,1025.69
2023-02-28T03:23:02.289Z,1025.70
2023-02-28T03:24:02.267Z,1025.71
2023-02-28T03:25:02.239Z,1025.73
2023-02-28T03:26:02.236Z,1025.67
2023-02-28T03:27:02.236Z,1025.68
2023-02-28T03:28:02.221Z,1025.68
2023-02-28T03:29:02.196Z,1025.70
2023-02-28T03:30:02.206Z,1025.73
2023-02-28T03:31:02.175Z,1025.72
2023-02-28T03:32:02.273Z,1025.75
2023-02-28T03:33:02.210Z,1025.74
2023-02-28T03:34:02.161Z,1025.70
2023-02-28T03:35:02.162Z,1025.72
2023-02-28T03:36:02.183Z,1025.74
2023-02-28T03:37:02.156Z,1025.73
2023-02-28T03:38:02.110Z,1025.70
2023-02-28T03:39:02.130Z,1025.72
2023-02-28T03:40:02.085Z,1025.73
2023-02-28T03:41:02.068Z,1025.73
2023-02-28T03:42:02.063Z,1025.69
2023-02-28T03:43:02.049Z,1025.74
2023-02-28T03:44:02.053Z,1025.75
2023-02-28T03:45:02.061Z,1025.81
2023-02-28T03:46:02.043Z,1025.75
2023-02-28T03:47:02.003Z,1025.72
2023-02-28T03:48:02.003Z,1025.77
2023-02-28T03:49:01.989Z,1025.74
2023-02-28T03:50:01.985Z,1025.77
2023-02-28T03:51:01.963Z,1025.75
2023-02-28T03:52:01.954Z,1025.80
2023-02-28T03:53:01.953Z,1025.74
2023-02-28T03:54:01.928Z,1025.80
2023-02-28T03:55:01.952Z,1025.78
2023-02-28T03:56:01.918Z,1025.80
2023-02-28T03:57:01.898Z,1025.76
2023-02-28T03:58:01.885Z,1025.78
2023-02-28T03:59:01.884Z,1025.75
2023-02-28T04:00:01.887Z,1025.75
2023-02-28T04:01:01.878Z,1025.81
2023-02-28T04:02:01.909Z,1025.81
2023-02-28T04:03:01.848Z,1025.76
2023-02-28T04:04:01.825Z,1025.80
2023-02-28T04:05:01.837Z,1025.77
2023-02-28T04:06:01.806Z,1025.80
2023-02-28T04:07:01.794Z,1025.80
2023-02-28T04:08:01.795Z,1025.76
2023-02-28T04:09:01.777Z,1025.77
2023-02-28T04:10:01.765Z,1025.83
2023-02-28T04:11:01.765Z,1025.80
2023-02-28T04:12:01.758Z,1025.81
2023-02-28T04:13:01.738Z,1025.80
2023-02-28T04:14:01.715Z,1025.81
2023-02-28T04:15:01.707Z,1025.83
2023-02-28T04:16:01.799Z,1025.88
2023-02-28T04:17:01.684Z,1025.85
2023-02-28T04:18:01.683Z,1025.83
2023-02-28T04:19:01.682Z,1025.82
2023-02-28T04:20:01.645Z,1025.80
2023-02-28T04:21:01.637Z,1025.82
2023-02-28T04:22:01.642Z,1025.82
2023-02-28T04:23:01.628Z,1025.83
2023-02-28T04:24:01.763Z,1025.81
2023-02-28T04:25:01.594Z,1025.79
2023-02-28T04:26:01.601Z,1025.83
2023-02-28T04:27:01.605Z,1025.83
2023-02-28T04:28:01.572Z,1025.83
2023-02-28T04:29:01.552Z,1025.85
2023-02-28T04:30:01.565Z,1025.87
2023-02-28T04:31:01.538Z,1025.89
2023-02-28T04:32:01.783Z,1025.93
2023-02-28T04:33:01.518Z,1025.89
2023-02-28T04:34:01.502Z,1025.90
2023-02-28T04:35:01.526Z,1025.92
2023-02-28T04:36:01.492Z,1025.93
2023-02-28T04:37:13.972Z,1025.88
2023-02-28T04:38:02.460Z,1025.87
2023-02-28T04:39:01.454Z,1025.82
2023-02-28T04:40:01.451Z,1025.86
2023-02-28T04:41:08.511Z,1025.90
2023-02-28T04:42:01.449Z,1025.90
2023-02-28T04:43:01.422Z,1025.89
2023-02-28T04:44:01.407Z,1025.89
2023-02-28T04:45:01.385Z,1025.90
2023-02-28T04:46:01.420Z,1025.92
2023-02-28T04:47:01.370Z,1025.88
2023-02-28T04:48:01.397Z,1025.91
2023-02-28T04:49:01.351Z,1025.84
2023-02-28T04:50:01.330Z,1025.88
2023-02-28T04:51:01.323Z,1025.90
2023-02-28T04:52:01.300Z,1025.92
2023-02-28T04:53:01.304Z,1025.92
2023-02-28T04:54:01.299Z,1025.93
2023-02-28T04:55:01.278Z,1025.93
2023-02-28T04:56:01.306Z,1025.96
2023-02-28T04:57:01.258Z,1025.99
2023-02-28T04:58:01.254Z,1025.91
2023-02-28T04:59:01.355Z,1025.96
2023-02-28T05:00:01.221Z,1025.99
2023-02-28T05:01:01.211Z,1025.97
2023-02-28T05:02:01.222Z,1025.97
2023-02-28T05:03:01.201Z,1025.96
2023-02-28T05:04:01.205Z,1025.98
2023-02-28T05:05:01.219Z,1025.96
2023-02-28T05:06:01.155Z,1026.00
2023-02-28T05:07:01.141Z,1026.06
2023-02-28T05:08:01.131Z,1026.07
2023-02-28T05:09:01.138Z,1026.06
2023-02-28T05:10:01.136Z,1026.03
2023-02-28T05:11:01.094Z,1026.03
2023-02-28T05:12:01.100Z,1026.05
2023-02-28T05:13:01.077Z,1026.02
2023-02-28T05:14:01.072Z,1026.04
2023-02-28T05:15:01.095Z,1026.08
2023-02-28T05:16:01.081Z,1026.06
2023-02-28T05:17:01.028Z,1026.07
2023-02-28T05:18:01.043Z,1026.12
2023-02-28T05:19:01.089Z,1026.12
2023-02-28T05:20:13.516Z,1026.11
2023-02-28T05:21:01.993Z,1026.09
2023-02-28T05:22:00.994Z,1026.11
2023-02-28T05:23:00.967Z,1026.09
2023-02-28T05:24:00.962Z,1026.14
2023-02-28T05:25:00.941Z,1026.11
2023-02-28T05:26:00.951Z,1026.13
2023-02-28T05:27:00.934Z,1026.12
2023-02-28T05:28:00.919Z,1026.16
2023-02-28T05:29:00.909Z,1026.14
2023-02-28T05:30:00.892Z,1026.18
2023-02-28T05:31:00.915Z,1026.21
2023-02-28T05:32:01.055Z,1026.20
2023-02-28T05:33:00.862Z,1026.16
2023-02-28T05:34:00.864Z,1026.17
2023-02-28T05:35:00.847Z,1026.15
2023-02-28T05:36:00.890Z,1026.15
2023-02-28T05:37:00.914Z,1026.15
2023-02-28T05:38:01.011Z,1026.16
2023-02-28T05:39:00.815Z,1026.16
2023-02-28T05:40:00.942Z,1026.14
2023-02-28T05:41:00.789Z,1026.17
2023-02-28T05:42:00.759Z,1026.20
2023-02-28T05:43:00.768Z,1026.20
2023-02-28T05:44:00.786Z,1026.19
2023-02-28T05:45:00.736Z,1026.21
2023-02-28T05:46:00.762Z,1026.26
2023-02-28T05:47:00.733Z,1026.27
2023-02-28T05:48:01.115Z,1026.25
2023-02-28T05:49:01.834Z,1026.23
2023-02-28T05:50:00.704Z,1026.22
2023-02-28T05:51:00.663Z,1026.28
2023-02-28T05:52:00.662Z,1026.26
2023-02-28T05:53:00.673Z,1026.27
2023-02-28T05:54:00.630Z,1026.27
2023-02-28T05:55:00.627Z,1026.27
2023-02-28T05:56:00.636Z,1026.26
2023-02-28T05:57:00.871Z,1026.27
2023-02-28T05:58:00.610Z,1026.28
2023-02-28T05:59:00.582Z,1026.29
2023-02-28T06:00:00.579Z,1026.30
2023-02-28T06:01:00.586Z,1026.28
2023-02-28T06:02:00.632Z,1026.30
2023-02-28T06:03:00.660Z,1026.30
2023-02-28T06:04:00.578Z,1026.31
2023-02-28T06:05:00.523Z,1026.29
2023-02-28T06:06:00.516Z,1026.34
2023-02-28T06:07:00.528Z,1026.30
2023-02-28T06:08:00.494Z,1026.27
2023-02-28T06:09:00.509Z,1026.28
2023-02-28T06:10:00.460Z,1026.32
2023-02-28T06:11:00.453Z,1026.32
2023-02-28T06:12:00.462Z,1026.34
2023-02-28T06:13:00.428Z,1026.35
2023-02-28T06:14:01.058Z,1026.32
2023-02-28T06:15:00.435Z,1026.36
2023-02-28T06:16:00.408Z,1026.35
2023-02-28T06:17:00.530Z,1026.34
2023-02-28T06:18:00.375Z,1026.39
2023-02-28T06:19:00.547Z,1026.37
2023-02-28T06:20:00.384Z,1026.39
2023-02-28T06:21:00.349Z,1026.42
2023-02-28T06:22:00.357Z,1026.40
2023-02-28T06:23:00.402Z,1026.42
2023-02-28T06:24:00.326Z,1026.41
2023-02-28T06:25:00.302Z,1026.41
2023-02-28T06:26:00.309Z,1026.40
2023-02-28T06:27:00.296Z,1026.45
2023-02-28T06:28:00.281Z,1026.43
2023-02-28T06:29:00.273Z,1026.41
2023-02-28T06:30:00.248Z,1026.45
2023-02-28T06:31:00.305Z,1026.47
2023-02-28T06:32:00.303Z,1026.47
2023-02-28T06:33:00.280Z,1026.47
2023-02-28T06:34:00.228Z,1026.48
2023-02-28T06:35:00.300Z,1026.54
2023-02-28T06:36:00.257Z,1026.51
2023-02-28T06:37:00.182Z,1026.55
2023-02-28T06:38:00.175Z,1026.56
2023-02-28T06:39:00.176Z,1026.60
2023-02-28T06:40:00.163Z,1026.58
2023-02-28T06:41:00.313Z,1026.61
2023-02-28T06:42:00.142Z,1026.60
2023-02-28T06:43:00.126Z,1026.64
2023-02-28T06:44:00.124Z,1026.62
2023-02-28T06:45:00.091Z,1026.65
2023-02-28T06:46:00.194Z,1026.62
2023-02-28T06:47:00.119Z,1026.64
2023-02-28T06:48:00.146Z,1026.65
2023-02-28T06:49:00.049Z,1026.67
2023-02-28T06:50:00.050Z,1026.62
2023-02-28T06:51:00.044Z,1026.70
2023-02-28T06:52:00.041Z,1026.68
2023-02-28T06:53:00.032Z,1026.66
2023-02-28T06:54:00.048Z,1026.73
2023-02-28T06:54:59.985Z,1026.73
2023-02-28T06:55:59.983Z,1026.72
2023-02-28T06:56:59.993Z,1026.76
2023-02-28T06:57:59.975Z,1026.64
2023-02-28T06:58:59.950Z,1026.67
2023-02-28T06:59:59.940Z,1026.75
2023-02-28T07:00:59.928Z,1026.70
2023-02-28T07:01:59.979Z,1026.72
2023-02-28T07:02:59.917Z,1026.71
2023-02-28T07:03:59.895Z,1026.72
2023-02-28T07:04:59.931Z,1026.70
2023-02-28T07:05:59.905Z,1026.72
2023-02-28T07:06:59.896Z,1026.73
2023-02-28T07:07:59.896Z,1026.75
2023-02-28T07:08:59.842Z,1026.75
2023-02-28T07:09:59.843Z,1026.72
2023-02-28T07:10:59.861Z,1026.70
2023-02-28T07:11:59.806Z,1026.74
2023-02-28T07:12:59.799Z,1026.74
2023-02-28T07:13:59.772Z,1026.74
2023-02-28T07:14:59.803Z,1026.73
2023-02-28T07:15:59.786Z,1026.76
2023-02-28T07:16:59.746Z,1026.76
2023-02-28T07:17:59.733Z,1026.74
2023-02-28T07:18:59.731Z,1026.77
2023-02-28T07:19:59.738Z,1026.77
2023-02-28T07:20:59.710Z,1026.75
2023-02-28T07:21:59.693Z,1026.76
2023-02-28T07:22:59.701Z,1026.76
2023-02-28T07:23:59.693Z,1026.74
2023-02-28T07:24:59.657Z,1026.76
2023-02-28T07:25:59.682Z,1026.72
2023-02-28T07:26:59.646Z,1026.75
2023-02-28T07:27:59.624Z,1026.73
2023-02-28T07:28:59.627Z,1026.73
2023-02-28T07:29:59.619Z,1026.72
2023-02-28T07:30:59.652Z,1026.79
2023-02-28T07:31:59.591Z,1026.81
2023-02-28T07:32:59.582Z,1026.80
2023-02-28T07:33:59.582Z,1026.79
2023-02-28T07:34:59.557Z,1026.81
2023-02-28T07:35:59.616Z,1026.80
2023-02-28T07:36:59.547Z,1026.86
2023-02-28T07:37:59.524Z,1026.82
2023-02-28T07:38:59.549Z,1026.77
2023-02-28T07:39:59.498Z,1026.78
2023-02-28T07:49:14.340Z,1026.79
2023-02-28T07:50:13.142Z,1026.75
2023-02-28T07:51:13.109Z,1026.80
2023-02-28T07:52:13.118Z,1026.82
2023-02-28T07:53:13.111Z,1026.82
2023-02-28T07:54:13.094Z,1026.89
2023-02-28T07:55:13.084Z,1026.85
2023-02-28T07:56:13.058Z,1026.90
2023-02-28T07:57:13.065Z,1026.83
2023-02-28T07:58:13.073Z,1026.80
2023-02-28T07:59:13.029Z,1026.78
2023-02-28T08:00:13.056Z,1026.78
2023-02-28T08:01:13.024Z,1026.77
2023-02-28T08:02:13.067Z,1026.76
2023-02-28T08:03:13.019Z,1026.79
2023-02-28T08:04:13.001Z,1026.84
2023-02-28T08:05:13.046Z,1026.82
2023-02-28T08:06:12.967Z,1026.80
2023-02-28T08:07:12.956Z,1026.87
2023-02-28T08:08:12.935Z,1026.84
2023-02-28T08:09:13.471Z,1026.83
2023-02-28T08:10:12.987Z,1026.82
2023-02-28T08:11:12.914Z,1026.83
2023-02-28T08:12:12.893Z,1026.82
2023-02-28T08:13:12.912Z,1026.84
2023-02-28T08:14:12.895Z,1026.81
2023-02-28T08:15:12.884Z,1026.85
2023-02-28T08:16:12.919Z,1026.85
2023-02-28T08:17:12.847Z,1026.83
2023-02-28T08:18:12.818Z,1026.87
2023-02-28T08:19:12.810Z,1026.82
2023-02-28T08:20:12.817Z,1026.81
2023-02-28T08:21:12.794Z,1026.83
2023-02-28T08:22:12.787Z,1026.83
2023-02-28T08:23:12.766Z,1026.79
2023-02-28T08:24:12.750Z,1026.84
2023-02-28T08:25:12.764Z,1026.86
2023-02-28T08:26:12.784Z,1026.85
2023-02-28T08:27:12.729Z,1026.78
2023-02-28T08:28:12.731Z,1026.76
2023-02-28T08:29:12.707Z,1026.79
2023-02-28T08:30:12.685Z,1026.78
2023-02-28T08:31:12.740Z,1026.80
2023-02-28T08:32:28.637Z,1026.82
2023-02-28T08:33:13.675Z,1026.86
2023-02-28T08:34:12.652Z,1026.83
2023-02-28T08:35:12.634Z,1026.87
2023-02-28T08:36:12.658Z,1026.84
2023-02-28T08:37:12.649Z,1026.87
2023-02-28T08:38:12.613Z,1026.88
2023-02-28T08:39:12.597Z,1026.88
2023-02-28T08:40:12.576Z,1026.92
2023-02-28T08:41:12.601Z,1026.95
2023-02-28T08:42:12.594Z,1026.88
2023-02-28T08:43:12.551Z,1026.84
2023-02-28T08:44:12.550Z,1026.88
2023-02-28T08:45:12.535Z,1026.91
2023-02-28T08:46:12.592Z,1026.86
2023-02-28T08:47:12.521Z,1026.89
2023-02-28T08:48:12.495Z,1026.92
2023-02-28T08:49:12.485Z,1026.88
2023-02-28T08:50:12.480Z,1026.89
2023-02-28T08:51:12.470Z,1026.87
2023-02-28T08:52:12.469Z,1026.89
2023-02-28T08:53:12.467Z,1026.89
2023-02-28T08:54:12.437Z,1026.97
2023-02-28T08:55:12.422Z,1026.95
2023-02-28T08:56:12.443Z,1026.95
2023-02-28T08:57:12.410Z,1026.97
2023-02-28T08:58:12.413Z,1027.02
2023-02-28T08:59:12.480Z,1027.00
2023-02-28T09:00:12.379Z,1027.03
2023-02-28T09:01:12.422Z,1027.05
2023-02-28T09:02:12.349Z,1027.06
2023-02-28T09:03:12.352Z,1027.09
2023-02-28T09:04:13.270Z,1027.03
2023-02-28T09:05:12.334Z,1027.12
2023-02-28T09:06:12.328Z,1027.09
2023-02-28T09:07:12.295Z,1027.06
2023-02-28T09:08:12.269Z,1027.10
2023-02-28T09:09:12.308Z,1027.07
2023-02-28T09:10:12.258Z,1027.10
2023-02-28T09:11:12.285Z,1027.15
2023-02-28T09:12:12.251Z,1027.17
2023-02-28T09:13:12.221Z,1027.17
2023-02-28T09:14:12.221Z,1027.20
2023-02-28T09:15:12.226Z,1027.17
2023-02-28T09:16:12.302Z,1027.20
2023-02-28T09:17:12.185Z,1027.15
2023-02-28T09:18:12.177Z,1027.20
2023-02-28T09:19:12.148Z,1027.19
2023-02-28T09:20:12.188Z,1027.16
2023-02-28T09:21:12.142Z,1027.21
2023-02-28T09:22:12.152Z,1027.19
2023-02-28T09:23:12.120Z,1027.20
2023-02-28T09:24:12.096Z,1027.14
2023-02-28T09:25:12.106Z,1027.13
2023-02-28T09:26:12.108Z,1027.14
2023-02-28T09:27:12.060Z,1027.11
2023-02-28T09:28:12.065Z,1027.04
2023-02-28T09:29:12.079Z,1027.06
2023-02-28T09:30:12.196Z,1027.05
2023-02-28T09:31:12.198Z,1027.02
2023-02-28T09:32:12.891Z,1027.00
2023-02-28T09:33:12.078Z,1027.04
2023-02-28T09:34:12.272Z,1027.04
2023-02-28T09:35:12.098Z,1027.03
2023-02-28T09:36:12.226Z,1026.99
2023-02-28T09:37:12.231Z,1027.04
2023-02-28T09:38:12.247Z,1027.10
2023-02-28T09:39:12.109Z,1027.04
2023-02-28T09:40:12.197Z,1026.99
2023-02-28T09:41:12.292Z,1026.96
2023-02-28T09:42:11.934Z,1026.92
2023-02-28T09:43:12.155Z,1026.89
2023-02-28T09:44:11.891Z,1026.89
2023-02-28T09:45:11.909Z,1026.86
2023-02-28T09:46:11.989Z,1026.96
2023-02-28T09:47:11.861Z,1026.97
2023-02-28T09:48:11.849Z,1026.95
2023-02-28T09:49:11.910Z,1026.93
2023-02-28T09:50:11.834Z,1026.93
2023-02-28T09:51:11.813Z,1026.92
2023-02-28T09:52:11.810Z,1026.93
2023-02-28T09:53:11.789Z,1026.94
2023-02-28T09:54:11.881Z,1027.00
2023-02-28T09:55:11.779Z,1027.00
2023-02-28T09:56:11.756Z,1027.10
2023-02-28T09:57:11.753Z,1027.03
2023-02-28T09:58:11.740Z,1027.04
2023-02-28T09:59:11.750Z,1027.10
2023-02-28T10:00:11.749Z,1027.07
2023-02-28T10:01:11.773Z,1027.20
2023-02-28T10:02:13.263Z,1027.16
2023-02-28T10:03:12.033Z,1027.21
2023-02-28T10:04:11.759Z,1027.20
2023-02-28T10:05:11.672Z,1027.19
2023-02-28T10:06:11.653Z,1027.22
2023-02-28T10:07:11.638Z,1027.20
2023-02-28T10:08:11.817Z,1027.21
2023-02-28T10:09:11.635Z,1027.26
2023-02-28T10:10:12.005Z,1027.24
2023-02-28T10:11:11.630Z,1027.21
2023-02-28T10:12:11.590Z,1027.13
2023-02-28T10:13:11.616Z,1027.18
2023-02-28T10:14:12.357Z,1027.20
2023-02-28T10:15:11.741Z,1027.13
2023-02-28T10:16:13.120Z,1027.15
2023-02-28T10:17:11.526Z,1027.19
2023-02-28T10:18:12.813Z,1027.12
2023-02-28T10:19:11.528Z,1027.07
2023-02-28T10:20:11.506Z,1027.04
2023-02-28T10:21:11.494Z,1026.99
2023-02-28T10:22:11.501Z,1026.94
2023-02-28T10:23:11.693Z,1026.90
2023-02-28T10:25:11.447Z,1026.95
2023-02-28T10:26:11.432Z,1026.94
2023-02-28T10:27:11.449Z,1026.94
2023-02-28T10:28:11.423Z,1026.98
2023-02-28T10:29:11.424Z,1026.96
2023-02-28T10:30:11.419Z,1026.87
2023-02-28T10:31:11.421Z,1026.88
2023-02-28T10:32:11.412Z,1026.88
2023-02-28T10:33:11.411Z,1026.86
2023-02-28T10:34:11.377Z,1026.86
2023-02-28T10:35:11.336Z,1026.87
2023-02-28T10:36:11.376Z,1026.84
2023-02-28T10:37:11.322Z,1026.87
2023-02-28T10:38:11.322Z,1026.92
2023-02-28T10:39:11.298Z,1026.89
2023-02-28T10:40:11.289Z,1026.95
2023-02-28T10:41:21.403Z,1026.92
2023-02-28T10:42:11.278Z,1026.90
2023-02-28T10:43:11.272Z,1026.92
2023-02-28T10:44:11.252Z,1026.86
2023-02-28T10:45:11.254Z,1026.93
2023-02-28T10:46:11.302Z,1026.94
2023-02-28T10:47:11.212Z,1026.91
2023-02-28T10:48:11.197Z,1026.94
2023-02-28T10:49:11.201Z,1026.93
2023-02-28T10:50:11.201Z,1026.94
2023-02-28T10:51:11.164Z,1026.93
2023-02-28T10:52:11.154Z,1026.89
2023-02-28T10:53:11.143Z,1026.86
2023-02-28T10:54:11.150Z,1026.79
2023-02-28T10:55:11.131Z,1026.85
2023-02-28T10:56:11.125Z,1026.80
2023-02-28T10:57:11.099Z,1026.88
2023-02-28T10:58:11.086Z,1026.84
2023-02-28T10:59:11.110Z,1026.86
2023-02-28T11:00:11.097Z,1026.87
2023-02-28T11:01:11.062Z,1026.84
2023-02-28T11:02:11.086Z,1026.82
2023-02-28T11:03:11.050Z,1026.77
2023-02-28T11:04:11.986Z,1026.73
2023-02-28T11:05:11.030Z,1026.71
2023-02-28T11:06:11.866Z,1026.75
2023-02-28T11:07:12.217Z,1026.77
2023-02-28T11:08:10.975Z,1026.70
2023-02-28T11:09:10.963Z,1026.64
2023-02-28T11:10:10.959Z,1026.62
2023-02-28T11:11:10.969Z,1026.61
2023-02-28T11:12:10.937Z,1026.55
2023-02-28T11:13:10.923Z,1026.57
2023-02-28T11:14:10.903Z,1026.52
2023-02-28T11:15:10.901Z,1026.52
2023-02-28T11:16:10.924Z,1026.52
2023-02-28T11:17:10.895Z,1026.62
2023-02-28T11:18:10.866Z,1026.60
2023-02-28T11:19:10.846Z,1026.56
2023-02-28T11:20:10.846Z,1026.54
2023-02-28T11:21:10.858Z,1026.56
2023-02-28T11:22:10.850Z,1026.52
2023-02-28T11:23:10.808Z,1026.53
2023-02-28T11:24:10.800Z,1026.48
2023-02-28T11:25:10.779Z,1026.47
2023-02-28T11:26:10.778Z,1026.48
2023-02-28T11:27:10.789Z,1026.48
2023-02-28T11:28:10.750Z,1026.44
2023-02-28T11:29:10.752Z,1026.46
2023-02-28T11:30:10.737Z,1026.43
2023-02-28T11:31:10.785Z,1026.45
2023-02-28T11:32:10.806Z,1026.46
2023-02-28T11:33:10.748Z,1026.39
2023-02-28T11:34:10.690Z,1026.41
2023-02-28T11:35:10.667Z,1026.39
2023-02-28T11:36:10.680Z,1026.43
2023-02-28T11:37:10.647Z,1026.41
2023-02-28T11:38:10.702Z,1026.42
2023-02-28T11:39:10.633Z,1026.40
2023-02-28T11:40:10.620Z,1026.42
2023-02-28T11:41:10.605Z,1026.42
2023-02-28T11:42:10.619Z,1026.44
2023-02-28T11:43:10.580Z,1026.43
2023-02-28T11:44:10.589Z,1026.38
2023-02-28T11:45:10.566Z,1026.39
2023-02-28T11:46:10.585Z,1026.39
2023-02-28T11:47:10.547Z,1026.38
2023-02-28T11:48:10.523Z,1026.39
2023-02-28T11:49:10.529Z,1026.40
2023-02-28T11:50:10.530Z,1026.41
2023-02-28T11:51:10.498Z,1026.46
2023-02-28T11:52:10.490Z,1026.42
2023-02-28T11:53:10.474Z,1026.44
2023-02-28T11:54:10.492Z,1026.44
2023-02-28T11:55:10.500Z,1026.42
2023-02-28T11:56:10.449Z,1026.42
2023-02-28T11:57:10.436Z,1026.46
2023-02-28T11:58:10.420Z,1026.42
2023-02-28T11:59:10.451Z,1026.44
2023-02-28T12:00:10.404Z,1026.45
2023-02-28T12:01:10.409Z,1026.44
2023-02-28T12:02:10.411Z,1026.46
2023-02-28T12:03:10.420Z,1026.46
2023-02-28T12:04:10.376Z,1026.44
2023-02-28T12:05:10.382Z,1026.43
2023-02-28T12:06:10.341Z,1026.36
2023-02-28T12:07:10.380Z,1026.37
2023-02-28T12:08:10.318Z,1026.34
2023-02-28T12:09:10.329Z,1026.34
2023-02-28T12:10:10.341Z,1026.38
2023-02-28T12:11:10.380Z,1026.34
2023-02-28T12:12:10.281Z,1026.35
2023-02-28T12:13:10.277Z,1026.33
2023-02-28T12:14:10.251Z,1026.35